Time;durP1;ratioP1;P1;durP2;ratioP2;P2;SDS_P1;SDS_P2;PMS_P1;PMS_P2;Temp;Humidity;BMP_temperature;BMP_pressure;BME280_temperature;BME280_humidity;BME280_pressure;Samples;Min_cycle;Max_cycle;Signal;HPM_P1;HPM_P2
2022/05/28 00:00:11;;;;;;;0.10;0.10;;;13.00;99.90;;;;;;5007107;28;20046;-68
2022/05/28 00:02:37;;;;;;;0.10;0.10;;;13.00;99.90;;;;;;5024569;28;20484;-68
2022/05/28 00:05:04;;;;;;;0.00;0.00;;;12.90;99.90;;;;;;5017556;28;20041;-69
2022/05/28 00:07:30;;;;;;;0.30;0.30;;;12.90;99.90;;;;;;5011753;28;20046;-68
2022/05/28 00:09:55;;;;;;;0.00;0.00;;;12.90;99.90;;;;;;5011267;28;20097;-68
2022/05/28 00:12:28;;;;;;;0.10;0.10;;;12.90;99.90;;;;;;5007913;28;20038;-69
2022/05/28 00:14:54;;;;;;;0.00;0.00;;;12.80;99.90;;;;;;5013501;28;20065;-69
2022/05/28 00:17:19;;;;;;;0.10;0.10;;;12.80;99.90;;;;;;5024025;28;20049;-69
2022/05/28 00:19:45;;;;;;;0.00;0.00;;;12.80;99.90;;;;;;5015050;28;20456;-68
2022/05/28 00:22:10;;;;;;;0.10;0.10;;;12.70;99.90;;;;;;5016453;28;20045;-68
2022/05/28 00:24:36;;;;;;;0.47;0.32;;;12.70;99.90;;;;;;5018046;28;20091;-68
2022/05/28 00:27:02;;;;;;;0.10;0.10;;;12.60;99.90;;;;;;5027864;28;20378;-68
2022/05/28 00:29:28;;;;;;;0.00;0.00;;;12.60;99.90;;;;;;5026429;28;20049;-68
2022/05/28 00:31:54;;;;;;;0.10;0.10;;;12.60;99.90;;;;;;5009911;28;20464;-68
2022/05/28 00:34:21;;;;;;;0.10;0.10;;;12.60;99.90;;;;;;5026296;28;20045;-69
2022/05/28 00:36:47;;;;;;;0.00;0.00;;;12.50;99.90;;;;;;5016776;28;20515;-69
2022/05/28 00:39:12;;;;;;;0.10;0.10;;;12.50;99.90;;;;;;5024686;28;20053;-69
2022/05/28 00:41:38;;;;;;;0.00;0.00;;;12.50;99.90;;;;;;5026760;28;20558;-69
2022/05/28 00:44:06;;;;;;;0.00;0.00;;;12.40;99.90;;;;;;5017355;28;20241;-69
2022/05/28 00:46:32;;;;;;;0.80;0.55;;;12.40;99.90;;;;;;5012555;28;20038;-68
2022/05/28 00:49:01;;;;;;;0.47;0.47;;;12.50;99.90;;;;;;5026367;28;20124;-68
2022/05/28 00:51:34;;;;;;;0.10;0.10;;;12.40;99.90;;;;;;5016388;28;20042;-69
2022/05/28 00:54:04;;;;;;;3.63;1.38;;;12.40;99.90;;;;;;5016115;28;20049;-69
2022/05/28 00:56:30;;;;;;;0.43;0.43;;;12.40;99.90;;;;;;5025656;28;20132;-69
2022/05/28 00:58:56;;;;;;;0.20;0.20;;;12.40;99.90;;;;;;5008924;28;20140;-68
2022/05/28 01:01:25;;;;;;;0.10;0.10;;;12.40;99.90;;;;;;5024290;28;20088;-69
2022/05/28 01:04:00;;;;;;;0.38;0.38;;;12.40;99.90;;;;;;5027446;28;20535;-68
2022/05/28 01:06:47;;;;;;;1.23;1.13;;;12.40;99.90;;;;;;5015192;28;20042;-68
2022/05/28 01:09:28;;;;;;;0.00;0.00;;;12.40;99.90;;;;;;5023989;28;20049;-68
2022/05/28 01:12:17;;;;;;;0.10;0.10;;;12.40;99.90;;;;;;5019937;28;20038;-68
2022/05/28 01:15:04;;;;;;;0.10;0.10;;;12.40;99.90;;;;;;5013524;28;20053;-68
2022/05/28 01:17:54;;;;;;;0.40;0.40;;;12.40;99.90;;;;;;5020433;28;20580;-69
2022/05/28 01:20:40;;;;;;;0.00;0.00;;;12.40;99.90;;;;;;5024597;28;20053;-68
2022/05/28 01:23:17;;;;;;;0.10;0.10;;;12.40;99.90;;;;;;5030679;28;20050;-68
2022/05/28 01:25:55;;;;;;;0.00;0.00;;;12.40;99.90;;;;;;5010747;28;20046;-68
2022/05/28 01:28:25;;;;;;;0.38;0.38;;;12.30;99.90;;;;;;5024665;28;20056;-68
2022/05/28 01:30:53;;;;;;;0.00;0.00;;;12.30;99.90;;;;;;5017779;28;20052;-69
2022/05/28 01:33:20;;;;;;;2.25;2.08;;;12.30;99.90;;;;;;5028382;28;20049;-69
2022/05/28 01:35:47;;;;;;;0.20;0.20;;;12.30;99.90;;;;;;5024112;28;20133;-68
2022/05/28 01:38:15;;;;;;;0.10;0.10;;;12.20;99.90;;;;;;5013894;28;20042;-69
2022/05/28 01:40:42;;;;;;;0.88;0.77;;;12.20;99.90;;;;;;5021423;28;20449;-69
2022/05/28 01:43:10;;;;;;;0.10;0.10;;;12.20;99.90;;;;;;5038351;28;20389;-69
2022/05/28 01:45:39;;;;;;;0.03;0.03;;;12.20;99.90;;;;;;5021816;28;20061;-69
2022/05/28 01:48:06;;;;;;;0.10;0.10;;;12.20;99.90;;;;;;5010409;28;20446;-70
2022/05/28 01:50:38;;;;;;;18.60;0.60;;;12.20;99.90;;;;;;5026141;28;20052;-69
2022/05/28 01:53:06;;;;;;;0.98;0.45;;;12.10;99.90;;;;;;5012570;28;20100;-69
2022/05/28 01:55:36;;;;;;;0.05;0.05;;;12.20;99.90;;;;;;5020319;28;20546;-69
2022/05/28 01:58:02;;;;;;;0.00;0.00;;;12.10;99.90;;;;;;5012769;28;20049;-69
2022/05/28 02:00:28;;;;;;;1.00;1.00;;;12.10;99.90;;;;;;5028096;28;20076;-70
2022/05/28 02:02:58;;;;;;;0.10;0.10;;;12.10;99.90;;;;;;5029080;28;20080;-69
2022/05/28 02:05:24;;;;;;;0.10;0.10;;;12.20;99.90;;;;;;5022475;28;20489;-70
2022/05/28 02:07:49;;;;;;;0.10;0.10;;;12.10;99.90;;;;;;5013456;28;20052;-70
2022/05/28 02:10:17;;;;;;;5.05;0.22;;;12.10;99.90;;;;;;5023104;28;20596;-69
2022/05/28 02:12:48;;;;;;;0.10;0.10;;;12.10;99.90;;;;;;5014128;28;20096;-70
2022/05/28 02:15:30;;;;;;;0.20;0.20;;;12.20;99.90;;;;;;5022641;28;20061;-69
2022/05/28 02:18:11;;;;;;;0.00;0.00;;;12.10;99.90;;;;;;5009470;28;20068;-69
2022/05/28 02:20:51;;;;;;;0.17;0.17;;;12.10;99.90;;;;;;5018239;28;20045;-69
2022/05/28 02:23:25;;;;;;;0.00;0.00;;;12.10;99.90;;;;;;5019791;28;20049;-70
2022/05/28 02:26:11;;;;;;;0.40;0.40;;;12.10;99.90;;;;;;5014750;28;20099;-70
2022/05/28 02:28:38;;;;;;;0.77;0.65;;;12.10;99.90;;;;;;5007798;28;20050;-70
2022/05/28 02:31:11;;;;;;;0.65;0.38;;;12.00;99.90;;;;;;5009291;28;20203;-70
2022/05/28 02:33:37;;;;;;;;;;;12.00;99.90;;;;;;5016822;28;20394;-70
2022/05/28 02:36:02;;;;;;;0.13;0.13;;;12.00;99.90;;;;;;5023784;28;19925;-70
2022/05/28 02:38:29;;;;;;;0.10;0.10;;;12.00;99.90;;;;;;5025587;28;20041;-70
2022/05/28 02:40:54;;;;;;;0.03;0.03;;;12.00;99.90;;;;;;5012766;28;20132;-70
2022/05/28 02:43:22;;;;;;;0.15;0.15;;;12.00;99.90;;;;;;5016418;28;20163;-69
2022/05/28 02:45:48;;;;;;;0.10;0.10;;;12.00;99.90;;;;;;5025667;28;20568;-69
2022/05/28 02:48:14;;;;;;;0.00;0.00;;;12.00;99.90;;;;;;5012273;28;20045;-69
2022/05/28 02:50:40;;;;;;;4.05;1.77;;;12.00;99.90;;;;;;5009275;28;21832;-70
2022/05/28 02:53:05;;;;;;;0.63;0.63;;;12.00;99.90;;;;;;5026732;28;20053;-70
2022/05/28 02:55:31;;;;;;;0.00;0.00;;;12.00;99.90;;;;;;5021906;28;20053;-69
2022/05/28 02:57:57;;;;;;;0.20;0.20;;;12.00;99.90;;;;;;5016972;28;20049;-70
2022/05/28 03:00:22;;;;;;;0.30;0.30;;;11.90;99.90;;;;;;5027732;28;20037;-70
2022/05/28 03:02:48;;;;;;;0.08;0.08;;;11.90;99.90;;;;;;5014361;28;20057;-70
2022/05/28 03:05:17;;;;;;;0.10;0.10;;;11.90;99.90;;;;;;5007434;28;20062;-69
2022/05/28 03:07:43;;;;;;;0.25;0.25;;;11.90;99.90;;;;;;5015032;28;20080;-70
2022/05/28 03:10:09;;;;;;;0.00;0.00;;;11.90;99.90;;;;;;5023085;28;20069;-70
2022/05/28 03:12:35;;;;;;;0.10;0.10;;;11.90;99.90;;;;;;5008674;28;20129;-70
2022/05/28 03:15:01;;;;;;;0.00;0.00;;;11.90;99.90;;;;;;5020530;28;20140;-70
2022/05/28 03:17:26;;;;;;;1.33;1.23;;;11.80;99.90;;;;;;5024690;28;20398;-70
2022/05/28 03:19:52;;;;;;;0.25;0.25;;;11.80;99.90;;;;;;5023599;28;20050;-69
2022/05/28 03:22:17;;;;;;;1.38;0.98;;;12.00;99.90;;;;;;5015485;28;20099;-69
2022/05/28 03:24:43;;;;;;;0.10;0.10;;;11.90;99.90;;;;;;5025674;28;20404;-70
2022/05/28 03:27:08;;;;;;;0.10;0.10;;;11.90;99.90;;;;;;5008823;28;20088;-70
2022/05/28 03:29:34;;;;;;;0.10;0.10;;;11.90;99.90;;;;;;5024652;28;20057;-70
2022/05/28 03:31:59;;;;;;;0.10;0.10;;;11.90;99.90;;;;;;5018213;28;20444;-70
2022/05/28 03:34:25;;;;;;;0.00;0.00;;;11.90;99.90;;;;;;5025919;28;20042;-70
2022/05/28 03:36:50;;;;;;;0.10;0.10;;;11.90;99.90;;;;;;5026775;28;20421;-70
2022/05/28 03:39:16;;;;;;;6.45;1.55;;;12.00;99.90;;;;;;5023160;28;20049;-70
2022/05/28 03:41:41;;;;;;;0.08;0.08;;;12.00;99.90;;;;;;5007303;28;20191;-70
2022/05/28 03:44:07;;;;;;;0.10;0.10;;;12.00;99.90;;;;;;5009781;28;20045;-69
2022/05/28 03:46:35;;;;;;;0.00;0.00;;;12.10;99.90;;;;;;5019934;28;20481;-70
2022/05/28 03:49:07;;;;;;;0.73;0.73;;;12.00;99.90;;;;;;5022811;28;20624;-70
2022/05/28 03:51:32;;;;;;;0.63;0.63;;;12.00;99.90;;;;;;5009244;28;20049;-70
2022/05/28 03:53:58;;;;;;;0.10;0.10;;;12.00;99.90;;;;;;5023106;28;20080;-69
2022/05/28 03:56:29;;;;;;;0.30;0.30;;;12.10;99.90;;;;;;5011759;28;20050;-70
2022/05/28 03:58:55;;;;;;;0.80;0.68;;;12.10;99.90;;;;;;5008683;28;20045;-69
2022/05/28 04:01:20;;;;;;;1.10;0.80;;;12.10;99.90;;;;;;5017578;28;20438;-69
2022/05/28 04:03:46;;;;;;;0.10;0.10;;;12.20;99.90;;;;;;5024408;28;20190;-69
2022/05/28 04:06:12;;;;;;;0.00;0.00;;;12.10;99.90;;;;;;5011739;28;20653;-70
2022/05/28 04:08:39;;;;;;;0.10;0.10;;;12.10;99.90;;;;;;5008197;28;20046;-70
2022/05/28 04:11:05;;;;;;;0.32;0.32;;;12.10;99.90;;;;;;5010492;28;20061;-69
2022/05/28 04:13:30;;;;;;;0.30;0.30;;;12.10;99.90;;;;;;5015754;28;20037;-69
2022/05/28 04:15:56;;;;;;;0.20;0.20;;;12.10;99.90;;;;;;5027751;28;20136;-69
2022/05/28 04:18:21;;;;;;;0.93;0.80;;;12.10;99.90;;;;;;5027133;28;20175;-69
2022/05/28 04:20:47;;;;;;;2.17;1.10;;;12.10;99.90;;;;;;5024728;28;20120;-69
2022/05/28 04:23:12;;;;;;;0.20;0.20;;;12.10;99.90;;;;;;5016164;28;20042;-69
2022/05/28 04:25:38;;;;;;;0.05;0.05;;;12.10;99.90;;;;;;5022793;28;20075;-69
2022/05/28 04:28:04;;;;;;;0.10;0.10;;;12.10;99.90;;;;;;5025731;28;20045;-69
2022/05/28 04:30:29;;;;;;;0.30;0.30;;;12.00;99.90;;;;;;5019700;28;20488;-69
2022/05/28 04:32:55;;;;;;;0.08;0.08;;;12.00;99.90;;;;;;5013155;28;20081;-69
2022/05/28 04:35:20;;;;;;;0.40;0.40;;;11.90;99.90;;;;;;5027517;28;20444;-69
2022/05/28 04:37:46;;;;;;;0.10;0.10;;;11.90;99.90;;;;;;5027400;28;20037;-69
2022/05/28 04:40:12;;;;;;;20.33;0.68;;;11.90;99.90;;;;;;5038815;28;20124;-69
2022/05/28 04:42:37;;;;;;;0.10;0.10;;;12.00;99.90;;;;;;5027587;28;20098;-69
2022/05/28 04:45:03;;;;;;;0.00;0.00;;;12.00;99.90;;;;;;5025843;28;20513;-69
2022/05/28 04:47:30;;;;;;;0.10;0.10;;;12.00;99.90;;;;;;5013295;28;20057;-69
2022/05/28 04:49:55;;;;;;;0.10;0.10;;;12.00;99.90;;;;;;5008605;28;20172;-69
2022/05/28 04:52:21;;;;;;;0.35;0.35;;;12.00;99.90;;;;;;5006795;28;20592;-69
2022/05/28 04:54:47;;;;;;;0.10;0.10;;;12.00;99.90;;;;;;5029083;28;20140;-69
2022/05/28 04:57:13;;;;;;;0.10;0.10;;;12.00;99.90;;;;;;5030469;28;20046;-69
2022/05/28 04:59:39;;;;;;;0.00;0.00;;;12.10;99.90;;;;;;5019385;28;20050;-70
2022/05/28 05:02:06;;;;;;;1.35;1.27;;;12.10;99.90;;;;;;5015350;28;20175;-70
2022/05/28 05:04:32;;;;;;;0.90;0.82;;;12.10;99.90;;;;;;5011834;28;20117;-69
2022/05/28 05:06:58;;;;;;;3.40;1.85;;;12.10;99.90;;;;;;5023314;28;20557;-70
2022/05/28 05:09:23;;;;;;;0.10;0.10;;;12.20;99.90;;;;;;5029688;28;20457;-70
2022/05/28 05:11:49;;;;;;;0.00;0.00;;;12.20;99.90;;;;;;5030684;28;20096;-70
2022/05/28 05:14:14;;;;;;;0.10;0.10;;;12.30;99.90;;;;;;5014760;28;20037;-71
2022/05/28 05:16:40;;;;;;;0.10;0.10;;;12.30;99.90;;;;;;5011267;28;20081;-70
2022/05/28 05:19:06;;;;;;;0.20;0.20;;;12.30;99.90;;;;;;5013651;28;20049;-70
2022/05/28 05:21:31;;;;;;;0.25;0.25;;;12.30;99.90;;;;;;5025974;28;20053;-70
2022/05/28 05:23:57;;;;;;;1.85;0.75;;;12.40;99.90;;;;;;5012570;28;20046;-70
2022/05/28 05:26:23;;;;;;;1.13;0.73;;;12.30;99.90;;;;;;5024048;28;20050;-70
2022/05/28 05:28:49;;;;;;;0.30;0.30;;;12.30;99.90;;;;;;5023182;28;20100;-70
2022/05/28 05:31:15;;;;;;;0.10;0.10;;;12.20;99.90;;;;;;5020477;28;20045;-70
2022/05/28 05:33:41;;;;;;;0.30;0.30;;;12.30;99.90;;;;;;5020721;28;20034;-69
2022/05/28 05:36:07;;;;;;;0.00;0.00;;;12.30;99.90;;;;;;5020550;28;20054;-69
2022/05/28 05:38:32;;;;;;;0.00;0.00;;;12.40;99.90;;;;;;5011364;28;20044;-69
2022/05/28 05:40:58;;;;;;;0.10;0.10;;;12.40;99.90;;;;;;5008650;28;20049;-70
2022/05/28 05:43:23;;;;;;;9.65;1.20;;;12.40;99.90;;;;;;5021976;28;20540;-70
2022/05/28 05:45:54;;;;;;;0.00;0.00;;;12.40;99.90;;;;;;5015842;28;20153;-69
2022/05/28 05:48:20;;;;;;;0.10;0.10;;;12.50;99.90;;;;;;5017165;28;20094;-69
2022/05/28 05:50:46;;;;;;;0.00;0.00;;;12.40;99.90;;;;;;5009136;28;20049;-69
2022/05/28 05:53:11;;;;;;;1.02;0.70;;;12.40;99.90;;;;;;5025651;28;20440;-70
2022/05/28 05:55:37;;;;;;;0.10;0.10;;;12.50;99.90;;;;;;5029045;28;20061;-69
2022/05/28 05:58:04;;;;;;;0.10;0.10;;;12.50;99.90;;;;;;5028424;28;20042;-70
2022/05/28 06:00:30;;;;;;;0.00;0.00;;;12.50;99.90;;;;;;5024250;28;20052;-70
2022/05/28 06:02:55;;;;;;;0.10;0.10;;;12.60;99.90;;;;;;5028619;28;20042;-70
2022/05/28 06:05:21;;;;;;;0.10;0.10;;;12.60;99.90;;;;;;5015114;28;20153;-70
2022/05/28 06:07:46;;;;;;;0.10;0.10;;;12.70;99.90;;;;;;5009172;28;20049;-70
2022/05/28 06:10:12;;;;;;;1.30;0.75;;;12.60;99.90;;;;;;5012512;28;20103;-69
2022/05/28 06:12:38;;;;;;;0.10;0.10;;;12.60;99.90;;;;;;5015374;28;20046;-69
2022/05/28 06:15:04;;;;;;;0.10;0.10;;;12.70;99.90;;;;;;5021458;28;20041;-69
2022/05/28 06:17:30;;;;;;;0.55;0.30;;;12.70;99.90;;;;;;5027372;28;20081;-69
2022/05/28 06:19:56;;;;;;;0.10;0.10;;;12.80;99.90;;;;;;5015597;28;20084;-69
2022/05/28 06:22:21;;;;;;;0.22;0.22;;;12.70;99.90;;;;;;5025002;28;20044;-69
2022/05/28 06:24:47;;;;;;;0.70;0.65;;;12.70;99.90;;;;;;5023914;28;20505;-69
2022/05/28 06:27:12;;;;;;;0.10;0.10;;;12.70;99.90;;;;;;5028139;28;20045;-69
2022/05/28 06:29:38;;;;;;;0.10;0.10;;;12.80;99.90;;;;;;5028426;28;20409;-70
2022/05/28 06:32:04;;;;;;;0.10;0.10;;;12.90;99.90;;;;;;5024037;28;20045;-69
2022/05/28 06:34:29;;;;;;;0.20;0.20;;;12.80;99.90;;;;;;5009920;28;20611;-69
2022/05/28 06:36:55;;;;;;;0.30;0.30;;;12.90;99.90;;;;;;5023179;28;20099;-69
2022/05/28 06:39:22;;;;;;;0.08;0.08;;;12.90;99.90;;;;;;5020097;28;20428;-68
2022/05/28 06:41:48;;;;;;;0.50;0.50;;;13.00;99.90;;;;;;5020471;28;20613;-69
2022/05/28 06:44:13;;;;;;;0.82;0.82;;;13.10;99.90;;;;;;5027330;28;20041;-69
2022/05/28 06:46:39;;;;;;;0.00;0.00;;;13.00;99.90;;;;;;5009903;28;20065;-68
2022/05/28 06:49:04;;;;;;;0.10;0.10;;;13.00;99.90;;;;;;5019623;28;20050;-69
2022/05/28 06:51:31;;;;;;;3.00;1.20;;;13.00;99.90;;;;;;5025953;28;20050;-69
2022/05/28 06:53:57;;;;;;;0.00;0.00;;;13.10;99.90;;;;;;5027572;28;20054;-69
2022/05/28 06:56:22;;;;;;;0.43;0.43;;;13.20;99.90;;;;;;5015044;28;20058;-69
2022/05/28 06:58:48;;;;;;;0.45;0.45;;;13.10;99.90;;;;;;5008719;28;20567;-68
2022/05/28 07:01:16;;;;;;;0.32;0.32;;;13.20;99.90;;;;;;5011812;28;20486;-70
2022/05/28 07:03:43;;;;;;;0.10;0.10;;;13.10;99.90;;;;;;5006570;28;20498;-69
2022/05/28 07:06:10;;;;;;;0.00;0.00;;;13.10;99.90;;;;;;5017042;28;20145;-69
2022/05/28 07:08:36;;;;;;;0.43;0.15;;;13.00;99.90;;;;;;5009327;28;20077;-69
2022/05/28 07:11:05;;;;;;;0.38;0.38;;;13.10;99.90;;;;;;5022343;28;20083;-69
2022/05/28 07:13:30;;;;;;;0.32;0.30;;;13.20;99.90;;;;;;5014349;28;20217;-68
2022/05/28 07:15:56;;;;;;;0.20;0.20;;;13.30;99.90;;;;;;5027069;28;20158;-68
2022/05/28 07:18:22;;;;;;;1.58;1.05;;;13.20;99.90;;;;;;5015996;28;20069;-68
2022/05/28 07:20:48;;;;;;;0.10;0.10;;;13.30;99.90;;;;;;5009424;28;20081;-69
2022/05/28 07:23:21;;;;;;;0.00;0.00;;;13.50;99.90;;;;;;5008286;28;20115;-68
2022/05/28 07:25:47;;;;;;;0.00;0.00;;;13.50;99.90;;;;;;5014987;28;20485;-68
2022/05/28 07:28:26;;;;;;;0.40;0.40;;;13.50;99.90;;;;;;5028724;28;20084;-68
2022/05/28 07:30:52;;;;;;;0.10;0.10;;;13.50;99.90;;;;;;5013511;28;20129;-69
2022/05/28 07:33:18;;;;;;;0.65;0.55;;;13.50;99.90;;;;;;5006750;28;20049;-69
2022/05/28 07:35:44;;;;;;;0.30;0.30;;;13.50;99.90;;;;;;5007535;28;20103;-69
2022/05/28 07:38:10;;;;;;;0.10;0.10;;;13.60;99.90;;;;;;5007913;28;20049;-69
2022/05/28 07:40:35;;;;;;;0.00;0.00;;;13.60;99.90;;;;;;5016943;28;20042;-69
2022/05/28 07:43:01;;;;;;;0.10;0.10;;;13.50;99.90;;;;;;5027318;28;20045;-69
2022/05/28 07:45:27;;;;;;;1.20;0.95;;;13.60;99.90;;;;;;5027072;28;20151;-69
2022/05/28 07:47:53;;;;;;;0.28;0.28;;;13.70;99.90;;;;;;5026306;28;20041;-69
2022/05/28 07:50:20;;;;;;;0.20;0.20;;;13.60;99.90;;;;;;5020404;28;20154;-69
2022/05/28 07:52:48;;;;;;;0.10;0.10;;;13.80;99.90;;;;;;5016159;28;20050;-69
2022/05/28 07:55:14;;;;;;;1.50;1.40;;;13.90;99.90;;;;;;5008437;28;20593;-69
2022/05/28 07:57:40;;;;;;;0.40;0.40;;;14.00;99.90;;;;;;5021023;28;20053;-71
2022/05/28 08:00:06;;;;;;;0.10;0.10;;;14.00;99.90;;;;;;5019865;28;20061;-69
2022/05/28 08:02:32;;;;;;;0.00;0.00;;;13.90;99.90;;;;;;5008275;28;20045;-70
2022/05/28 08:04:57;;;;;;;0.35;0.28;;;14.00;99.90;;;;;;5010336;28;20367;-69
2022/05/28 08:07:23;;;;;;;0.00;0.00;;;14.00;99.90;;;;;;5006639;28;20132;-70
2022/05/28 08:09:48;;;;;;;0.10;0.10;;;14.00;99.90;;;;;;5008104;28;20603;-71
2022/05/28 08:12:14;;;;;;;1.25;1.15;;;14.00;99.90;;;;;;5007054;28;20041;-69
2022/05/28 08:14:39;;;;;;;0.32;0.32;;;14.10;99.90;;;;;;5017332;28;20805;-69
2022/05/28 08:17:05;;;;;;;1.02;0.57;;;14.10;99.90;;;;;;5027117;28;20073;-69
2022/05/28 08:19:32;;;;;;;0.10;0.10;;;14.10;99.90;;;;;;5026888;28;20045;-70
2022/05/28 08:24:42;;;;;;;4.03;1.75;;;14.20;99.90;;;;;;5015604;28;20093;-69
2022/05/28 08:27:07;;;;;;;2.20;1.02;;;14.50;99.90;;;;;;5009219;28;20085;-70
2022/05/28 08:29:33;;;;;;;0.30;0.30;;;14.50;99.90;;;;;;5013972;28;20106;-69
2022/05/28 08:31:58;;;;;;;0.00;0.00;;;14.40;99.90;;;;;;5031863;28;20053;-69
2022/05/28 08:34:24;;;;;;;0.10;0.10;;;14.20;99.90;;;;;;5014618;28;20743;-68
2022/05/28 08:36:49;;;;;;;0.15;0.15;;;14.20;99.90;;;;;;5015831;28;20050;-68
2022/05/28 08:39:16;;;;;;;0.00;0.00;;;14.10;99.90;;;;;;5030773;28;20136;-69
2022/05/28 08:41:57;;;;;;;0.35;0.35;;;14.00;99.90;;;;;;5029382;28;20057;-69
2022/05/28 08:44:25;;;;;;;0.10;0.10;;;13.90;99.90;;;;;;5024064;28;20053;-69
2022/05/28 08:46:54;;;;;;;5.25;1.75;;;14.00;99.90;;;;;;5027181;28;20523;-68
2022/05/28 08:49:26;;;;;;;0.10;0.10;;;14.20;99.90;;;;;;5021615;28;20234;-71
2022/05/28 08:52:14;;;;;;;0.00;0.00;;;14.30;99.90;;;;;;5023472;28;20045;-67
2022/05/28 08:54:58;;;;;;;13.13;0.77;;;14.20;99.90;;;;;;5025301;28;20057;-68
2022/05/28 08:57:47;;;;;;;0.03;0.03;;;14.20;99.90;;;;;;5023198;28;20054;-68
2022/05/28 09:00:38;;;;;;;1.15;0.85;;;14.10;99.90;;;;;;5029009;28;20053;-68
2022/05/28 09:03:30;;;;;;;0.10;0.10;;;14.10;99.90;;;;;;5032781;28;20518;-69
2022/05/28 09:06:02;;;;;;;0.00;0.00;;;13.90;99.90;;;;;;5030821;28;20058;-69
2022/05/28 09:08:36;;;;;;;0.10;0.10;;;14.20;99.90;;;;;;5020132;28;20073;-69
2022/05/28 09:11:13;;;;;;;0.60;0.52;;;14.40;99.90;;;;;;5010976;28;20672;-69
2022/05/28 09:13:49;;;;;;;0.65;0.47;;;14.40;99.90;;;;;;5013954;28;20095;-69
2022/05/28 09:16:29;;;;;;;0.10;0.10;;;14.30;99.90;;;;;;5028739;28;20171;-71
2022/05/28 09:19:00;;;;;;;0.17;0.17;;;14.40;99.90;;;;;;5029036;28;20060;-69
2022/05/28 09:21:25;;;;;;;0.32;0.32;;;14.50;99.90;;;;;;5026089;28;20057;-69
2022/05/28 09:24:04;;;;;;;2.03;0.57;;;14.60;99.90;;;;;;5026952;28;20041;-68
2022/05/28 09:26:36;;;;;;;0.10;0.10;;;14.60;99.90;;;;;;5026696;28;20050;-68
2022/05/28 09:29:29;;;;;;;1.25;1.20;;;14.60;99.90;;;;;;5011842;28;20046;-69
2022/05/28 09:32:16;;;;;;;0.10;0.10;;;14.80;99.90;;;;;;5019672;28;20501;-68
2022/05/28 09:35:10;;;;;;;0.10;0.10;;;14.80;99.90;;;;;;5010741;28;20045;-68
2022/05/28 09:37:52;;;;;;;0.52;0.43;;;15.00;99.90;;;;;;5029623;28;20045;-68
2022/05/28 09:40:46;;;;;;;3.25;1.55;;;15.20;99.90;;;;;;5018947;28;20057;-69
2022/05/28 09:43:46;;;;;;;0.10;0.10;;;14.90;99.90;;;;;;5025638;28;20049;-68
2022/05/28 09:46:37;;;;;;;0.10;0.10;;;14.60;99.90;;;;;;5019692;28;20485;-68
2022/05/28 09:49:05;;;;;;;0.35;0.35;;;14.40;99.90;;;;;;5012783;28;20058;-68
2022/05/28 09:51:33;;;;;;;0.55;0.55;;;14.30;99.90;;;;;;5026359;28;20141;-69
2022/05/28 09:54:20;;;;;;;0.10;0.10;;;14.60;99.90;;;;;;5029642;28;20053;-68
2022/05/28 09:57:01;;;;;;;0.10;0.10;;;14.90;99.90;;;;;;5012153;28;20053;-67
2022/05/28 09:59:35;;;;;;;1.27;1.17;;;15.20;99.90;;;;;;5010981;28;20040;-68
2022/05/28 10:02:41;;;;;;;0.10;0.10;;;15.20;99.90;;;;;;5020793;28;20105;-69
2022/05/28 10:05:16;;;;;;;0.30;0.30;;;15.00;99.90;;;;;;5024389;28;20127;-69
2022/05/28 10:07:47;;;;;;;0.00;0.00;;;15.10;99.90;;;;;;5016048;28;20049;-69
2022/05/28 10:10:22;;;;;;;0.10;0.10;;;15.40;99.90;;;;;;5014254;28;20409;-69
2022/05/28 10:12:48;;;;;;;0.50;0.50;;;15.20;99.90;;;;;;5010646;28;20053;-69
2022/05/28 10:15:16;;;;;;;0.73;0.68;;;15.40;99.90;;;;;;5024759;28;20045;-69
2022/05/28 10:17:52;;;;;;;0.00;0.00;;;15.50;99.90;;;;;;5025845;28;20576;-68
2022/05/28 10:20:20;;;;;;;0.32;0.32;;;15.40;99.90;;;;;;5019760;28;20139;-69
2022/05/28 10:22:52;;;;;;;3.25;1.33;;;15.40;99.90;;;;;;5008569;28;20049;-69
2022/05/28 10:25:50;;;;;;;0.20;0.20;;;15.50;99.90;;;;;;5010212;28;20156;-68
2022/05/28 10:28:47;;;;;;;0.10;0.10;;;15.80;99.90;;;;;;4992117;28;20533;-68
2022/05/28 10:31:22;;;;;;;0.10;0.10;;;16.10;99.90;;;;;;5017976;28;20135;-67
2022/05/28 10:33:48;;;;;;;0.15;0.15;;;16.40;99.90;;;;;;5023919;28;20555;-68
2022/05/28 10:36:20;;;;;;;0.10;0.10;;;16.60;99.90;;;;;;5009021;28;20046;-69
2022/05/28 10:38:46;;;;;;;0.00;0.00;;;16.60;99.90;;;;;;5007442;28;20484;-67
2022/05/28 10:41:26;;;;;;;0.40;0.40;;;16.50;99.90;;;;;;5024804;28;20049;-69
2022/05/28 10:43:52;;;;;;;0.10;0.10;;;16.30;99.90;;;;;;5025995;28;20397;-69
2022/05/28 10:46:36;;;;;;;0.10;0.10;;;16.20;99.90;;;;;;5027172;28;20052;-69
2022/05/28 10:49:26;;;;;;;1.80;1.65;;;16.00;99.90;;;;;;5017521;28;20073;-69
2022/05/28 10:52:13;;;;;;;0.00;0.00;;;16.00;99.90;;;;;;5028880;28;20473;-68
2022/05/28 10:55:05;;;;;;;21.42;0.93;;;15.70;99.90;;;;;;5030445;28;20089;-68
2022/05/28 10:57:41;;;;;;;3.80;1.52;;;15.50;99.90;;;;;;5021737;28;20095;-68
2022/05/28 11:00:11;;;;;;;0.20;0.20;;;15.20;99.90;;;;;;5012212;28;20113;-69
2022/05/28 11:03:06;;;;;;;1.17;0.82;;;15.20;99.90;;;;;;5011427;28;20050;-69
2022/05/28 11:05:50;;;;;;;0.95;0.63;;;15.30;99.90;;;;;;5027237;28;20534;-69
2022/05/28 11:08:54;;;;;;;0.20;0.20;;;15.40;99.90;;;;;;5011316;28;20045;-68
2022/05/28 11:11:41;;;;;;;0.30;0.30;;;15.10;99.90;;;;;;5009670;28;20124;-69
2022/05/28 11:14:45;;;;;;;0.00;0.00;;;15.00;99.90;;;;;;5016181;28;20405;-68
2022/05/28 11:17:14;;;;;;;;;;;14.90;99.90;;;;;;5020708;28;20065;-68
2022/05/28 11:20:17;;;;;;;0.03;0.03;;;14.80;99.90;;;;;;5021687;28;19929;-67
2022/05/28 11:23:06;;;;;;;0.20;0.20;;;14.70;99.90;;;;;;5031268;28;20052;-68
2022/05/28 11:25:49;;;;;;;1.40;1.23;;;15.00;99.90;;;;;;5013994;28;20551;-68
2022/05/28 11:28:35;;;;;;;1.50;0.22;;;15.10;99.90;;;;;;5008112;28;20056;-68
2022/05/28 11:31:29;;;;;;;0.93;0.60;;;14.80;99.90;;;;;;5021532;28;20055;-68
2022/05/28 11:33:56;;;;;;;0.03;0.03;;;14.70;99.90;;;;;;5032323;28;20524;-68
2022/05/28 11:36:27;;;;;;;0.90;0.40;;;14.60;99.90;;;;;;5028064;28;20049;-68
2022/05/28 11:39:06;;;;;;;1.80;1.38;;;14.60;99.90;;;;;;5023094;28;20091;-68
2022/05/28 11:41:39;;;;;;;0.00;0.00;;;15.00;99.90;;;;;;5025428;28;20076;-68
2022/05/28 11:44:10;;;;;;;0.20;0.20;;;15.00;99.90;;;;;;5028480;28;20137;-68
2022/05/28 11:47:06;;;;;;;0.10;0.10;;;15.30;99.90;;;;;;5027659;28;20288;-68
2022/05/28 11:52:45;;;;;;;0.63;0.63;;;15.20;99.90;;;;;;5008447;28;20220;-68
2022/05/28 11:55:22;;;;;;;0.20;0.20;;;15.00;99.90;;;;;;5028469;28;20057;-67
2022/05/28 11:58:03;;;;;;;0.98;0.70;;;15.00;99.90;;;;;;5027393;28;20049;-67
2022/05/28 12:00:33;;;;;;;0.10;0.10;;;15.10;99.90;;;;;;5023158;28;20064;-68
2022/05/28 12:03:20;;;;;;;0.00;0.00;;;16.10;99.90;;;;;;5008102;28;20049;-68
2022/05/28 12:06:06;;;;;;;0.30;0.30;;;16.60;99.90;;;;;;5019219;28;20120;-67
2022/05/28 12:08:48;;;;;;;0.60;0.60;;;16.50;99.90;;;;;;5020299;28;20146;-67
2022/05/28 12:11:19;;;;;;;0.00;0.00;;;16.30;99.90;;;;;;5021341;28;20413;-67
2022/05/28 12:13:57;;;;;;;0.00;0.00;;;15.90;99.90;;;;;;5012006;28;20125;-67
2022/05/28 12:16:39;;;;;;;0.10;0.10;;;16.40;99.90;;;;;;5024356;28;20059;-67
2022/05/28 12:19:11;;;;;;;0.03;0.03;;;16.80;99.90;;;;;;5013613;28;20072;-67
2022/05/28 12:21:38;;;;;;;0.03;0.03;;;16.40;99.90;;;;;;5006960;28;20042;-67
2022/05/28 12:24:12;;;;;;;0.65;0.65;;;16.70;99.90;;;;;;5009180;28;20088;-68
2022/05/28 12:27:07;;;;;;;0.10;0.10;;;17.00;99.90;;;;;;5008456;28;20068;-67
2022/05/28 12:29:45;;;;;;;0.22;0.22;;;16.80;99.90;;;;;;5007228;28;20038;-67
2022/05/28 12:32:20;;;;;;;0.45;0.45;;;16.90;99.90;;;;;;5015036;28;20046;-67
2022/05/28 12:35:00;;;;;;;0.03;0.03;;;17.50;99.90;;;;;;5009947;28;20042;-68
2022/05/28 12:37:35;;;;;;;0.00;0.00;;;18.20;99.90;;;;;;5008173;28;20077;-67
2022/05/28 12:40:35;;;;;;;0.17;0.17;;;18.30;99.90;;;;;;5007713;28;20046;-66
2022/05/28 12:43:39;;;;;;;0.00;0.00;;;17.80;99.90;;;;;;5024632;28;20045;-67
2022/05/28 12:46:30;;;;;;;;;;;17.20;99.90;;;;;;5039079;28;20059;-66
2022/05/28 12:49:11;;;;;;;0.00;0.00;;;17.50;99.90;;;;;;5030645;28;19924;-66
2022/05/28 12:52:20;;;;;;;0.10;0.10;;;17.80;99.90;;;;;;5029529;28;20065;-66
2022/05/28 12:54:48;;;;;;;7.65;1.85;;;18.10;99.90;;;;;;5016078;28;20149;-66
2022/05/28 12:57:25;;;;;;;0.20;0.20;;;18.80;99.90;;;;;;5007403;28;20062;-66
2022/05/28 13:00:00;;;;;;;0.20;0.20;;;18.20;99.90;;;;;;5013784;28;20096;-67
2022/05/28 13:02:31;;;;;;;0.13;0.10;;;18.10;99.90;;;;;;5026239;28;20057;-67
2022/05/28 13:05:05;;;;;;;5.65;1.52;;;17.50;99.90;;;;;;5026876;28;20053;-68
2022/05/28 13:07:36;;;;;;;0.00;0.00;;;17.20;99.90;;;;;;5026693;28;20072;-68
2022/05/28 13:10:22;;;;;;;0.10;0.10;;;17.10;99.90;;;;;;5027146;28;20041;-68
2022/05/28 13:12:52;;;;;;;0.00;0.00;;;17.80;99.90;;;;;;5026083;28;20054;-67
2022/05/28 13:15:45;;;;;;;0.00;0.00;;;18.00;99.90;;;;;;5021927;28;20064;-67